KCNM

Cavern City Air Trml Airport

Carlsbad, New Mexico, USA
METAR KCNM 201453Z AUTO 25013G18KT 10SM CLR 14/02 A2988 RMK AO2 SLP086 T01440022 51032
Observed Flight Rules
Feb-20 @ 14:53 UTC (5 hours ago) Visual Flight Rules
Wind Visibility Clouds
250° at 13 knots
 Gusting to 18 knots
10 miles
  • Clear skies
Temperatures Readings
Current 14°C / 57°F
Dewpoint 2°C / 36°F
Humidity 44%
Altimeter 29.88" Hg
Pressure 1008.6 hPa
Elevation 985
METAR KCNM 201453Z AUTO 25013G18KT 10SM CLR 14/02 A2988 RMK AO2 SLP086 T01440022 51032
Observed Flight Rules
Feb-20 @ 14:53 UTC
(5 hours ago)
VFR
Wind Visibility
250° at 13 knots
 Gusting to 18 knots
10 miles
Clouds
  • Clear skies
Temperature Dewpoint
14°C / 57°F 2°C / 36°F
Humidity Altimeter Pressure
44% 29.88" Hg 1008.6 hPa